sensor_id;sensor_type;location;lat;lon;timestamp;pressure;altitude;pressure_sealevel;temperature;humidity
35910;BME280;22004;49.120;-0.200;2023-02-19T00:01:13;102470.03;;;11.20;79.55
35910;BME280;22004;49.120;-0.200;2023-02-19T00:03:39;102478.34;;;11.46;78.31
35910;BME280;22004;49.120;-0.200;2023-02-19T00:06:07;102476.81;;;11.05;80.30
35910;BME280;22004;49.120;-0.200;2023-02-19T00:08:34;102472.16;;;11.17;79.24
35910;BME280;22004;49.120;-0.200;2023-02-19T00:11:04;102468.75;;;11.34;78.64
35910;BME280;22004;49.120;-0.200;2023-02-19T00:13:30;102473.28;;;11.14;79.47
35910;BME280;22004;49.120;-0.200;2023-02-19T00:15:56;102476.94;;;11.23;79.40
35910;BME280;22004;49.120;-0.200;2023-02-19T00:18:22;102483.47;;;11.10;79.94
35910;BME280;22004;49.120;-0.200;2023-02-19T00:20:48;102483.75;;;11.17;78.74
35910;BME280;22004;49.120;-0.200;2023-02-19T00:23:13;102495.91;;;11.21;78.64
35910;BME280;22004;49.120;-0.200;2023-02-19T00:25:39;102492.50;;;11.38;77.53
35910;BME280;22004;49.120;-0.200;2023-02-19T00:28:04;102500.59;;;11.29;78.23
35910;BME280;22004;49.120;-0.200;2023-02-19T00:30:29;102495.91;;;11.41;77.87
35910;BME280;22004;49.120;-0.200;2023-02-19T00:32:55;102497.75;;;11.21;78.31
35910;BME280;22004;49.120;-0.200;2023-02-19T00:35:21;102500.13;;;11.43;77.70
35910;BME280;22004;49.120;-0.200;2023-02-19T00:37:46;102491.53;;;11.01;79.24
35910;BME280;22004;49.120;-0.200;2023-02-19T00:40:12;102486.16;;;11.10;79.20
35910;BME280;22004;49.120;-0.200;2023-02-19T00:42:37;102487.00;;;11.40;77.26
35910;BME280;22004;49.120;-0.200;2023-02-19T00:45:02;102492.06;;;11.24;78.03
35910;BME280;22004;49.120;-0.200;2023-02-19T00:47:28;102505.53;;;11.33;77.68
35910;BME280;22004;49.120;-0.200;2023-02-19T00:49:53;102507.50;;;11.41;77.13
35910;BME280;22004;49.120;-0.200;2023-02-19T00:52:19;102501.44;;;11.39;77.13
35910;BME280;22004;49.120;-0.200;2023-02-19T00:54:44;102500.28;;;11.32;77.68
35910;BME280;22004;49.120;-0.200;2023-02-19T00:57:09;102511.47;;;11.08;78.88
35910;BME280;22004;49.120;-0.200;2023-02-19T00:59:35;102505.41;;;11.45;77.35
35910;BME280;22004;49.120;-0.200;2023-02-19T01:02:01;102512.63;;;11.34;77.43
35910;BME280;22004;49.120;-0.200;2023-02-19T01:04:26;102504.25;;;11.37;77.46
35910;BME280;22004;49.120;-0.200;2023-02-19T01:06:52;102501.44;;;11.39;77.32
35910;BME280;22004;49.120;-0.200;2023-02-19T01:09:17;102506.25;;;11.45;76.95
35910;BME280;22004;49.120;-0.200;2023-02-19T01:11:43;102520.09;;;11.11;78.50
35910;BME280;22004;49.120;-0.200;2023-02-19T01:14:08;102521.13;;;11.30;77.96
35910;BME280;22004;49.120;-0.200;2023-02-19T01:16:34;102510.50;;;11.09;79.27
35910;BME280;22004;49.120;-0.200;2023-02-19T01:19:00;102509.63;;;11.18;78.68
35910;BME280;22004;49.120;-0.200;2023-02-19T01:21:27;102514.88;;;11.29;78.09
35910;BME280;22004;49.120;-0.200;2023-02-19T01:23:54;102507.94;;;11.17;78.72
35910;BME280;22004;49.120;-0.200;2023-02-19T01:26:25;102512.63;;;11.34;77.45
35910;BME280;22004;49.120;-0.200;2023-02-19T01:28:51;102514.47;;;11.34;77.87
35910;BME280;22004;49.120;-0.200;2023-02-19T01:31:21;102508.25;;;11.14;78.76
35910;BME280;22004;49.120;-0.200;2023-02-19T01:33:52;102521.81;;;11.22;78.44
35910;BME280;22004;49.120;-0.200;2023-02-19T01:36:19;102516.31;;;11.14;78.76
35910;BME280;22004;49.120;-0.200;2023-02-19T01:38:45;102526.47;;;11.10;78.69
35910;BME280;22004;49.120;-0.200;2023-02-19T01:41:16;102518.84;;;11.25;77.78
35910;BME280;22004;49.120;-0.200;2023-02-19T01:46:30;102514.03;;;11.19;78.32
35910;BME280;22004;49.120;-0.200;2023-02-19T01:48:58;102530.16;;;11.00;78.88
35910;BME280;22004;49.120;-0.200;2023-02-19T01:51:25;102530.88;;;11.21;78.11
35910;BME280;22004;49.120;-0.200;2023-02-19T01:53:55;102523.38;;;11.15;77.90
35910;BME280;22004;49.120;-0.200;2023-02-19T01:56:21;102530.72;;;11.32;77.35
35910;BME280;22004;49.120;-0.200;2023-02-19T01:58:47;102533.28;;;11.15;77.67
35910;BME280;22004;49.120;-0.200;2023-02-19T02:01:13;102532.00;;;11.09;77.83
35910;BME280;22004;49.120;-0.200;2023-02-19T02:03:40;102543.59;;;11.09;77.37
35910;BME280;22004;49.120;-0.200;2023-02-19T02:08:40;102538.66;;;11.05;77.69
35910;BME280;22004;49.120;-0.200;2023-02-19T02:11:25;102540.34;;;11.16;77.09
35910;BME280;22004;49.120;-0.200;2023-02-19T02:13:51;102544.28;;;10.92;77.42
35910;BME280;22004;49.120;-0.200;2023-02-19T02:16:50;102542.31;;;11.13;75.99
35910;BME280;22004;49.120;-0.200;2023-02-19T02:22:02;102543.56;;;10.90;76.54
35910;BME280;22004;49.120;-0.200;2023-02-19T02:28:02;102549.69;;;11.11;76.45
35910;BME280;22004;49.120;-0.200;2023-02-19T02:30:53;102552.06;;;10.95;76.06
35910;BME280;22004;49.120;-0.200;2023-02-19T02:33:31;102533.38;;;11.03;76.00
35910;BME280;22004;49.120;-0.200;2023-02-19T02:36:06;102542.88;;;10.98;75.13
35910;BME280;22004;49.120;-0.200;2023-02-19T02:38:36;102544.84;;;10.86;76.08
35910;BME280;22004;49.120;-0.200;2023-02-19T02:41:03;102552.19;;;11.03;74.93
35910;BME280;22004;49.120;-0.200;2023-02-19T02:43:30;102549.09;;;11.08;74.67
35910;BME280;22004;49.120;-0.200;2023-02-19T02:45:55;102549.69;;;11.11;74.86
35910;BME280;22004;49.120;-0.200;2023-02-19T02:48:34;102553.63;;;10.98;75.48
35910;BME280;22004;49.120;-0.200;2023-02-19T02:51:15;102546.81;;;11.03;74.67
35910;BME280;22004;49.120;-0.200;2023-02-19T02:56:29;102543.72;;;10.98;74.01
35910;BME280;22004;49.120;-0.200;2023-02-19T02:58:57;102547.81;;;10.93;74.80
35910;BME280;22004;49.120;-0.200;2023-02-19T03:06:59;102543.25;;;10.83;74.68
35910;BME280;22004;49.120;-0.200;2023-02-19T03:09:33;102540.03;;;10.90;74.62
35910;BME280;22004;49.120;-0.200;2023-02-19T03:12:06;102533.34;;;10.65;73.78
35910;BME280;22004;49.120;-0.200;2023-02-19T03:14:54;102535.81;;;11.06;73.79
35910;BME280;22004;49.120;-0.200;2023-02-19T03:17:48;102535.97;;;11.05;74.04
35910;BME280;22004;49.120;-0.200;2023-02-19T03:20:37;102545.69;;;10.86;73.56
35910;BME280;22004;49.120;-0.200;2023-02-19T03:23:05;102553.19;;;10.93;73.81
35910;BME280;22004;49.120;-0.200;2023-02-19T03:25:34;102550.78;;;10.80;73.20
35910;BME280;22004;49.120;-0.200;2023-02-19T03:28:20;102556.44;;;10.96;73.87
35910;BME280;22004;49.120;-0.200;2023-02-19T03:31:08;102539.59;;;11.04;73.64
35910;BME280;22004;49.120;-0.200;2023-02-19T03:33:36;102546.16;;;11.21;72.33
35910;BME280;22004;49.120;-0.200;2023-02-19T03:36:06;102547.25;;;11.08;73.34
35910;BME280;22004;49.120;-0.200;2023-02-19T03:46:09;102550.94;;;11.07;72.88
35910;BME280;22004;49.120;-0.200;2023-02-19T03:48:44;102575.88;;;11.09;72.76
35910;BME280;22004;49.120;-0.200;2023-02-19T03:53:52;102562.69;;;11.06;71.59
35910;BME280;22004;49.120;-0.200;2023-02-19T03:56:42;102564.97;;;11.30;72.72
35910;BME280;22004;49.120;-0.200;2023-02-19T03:59:22;102566.81;;;11.30;72.44
35910;BME280;22004;49.120;-0.200;2023-02-19T04:01:53;102565.53;;;11.15;72.65
35910;BME280;22004;49.120;-0.200;2023-02-19T04:04:37;102559.44;;;11.12;72.42
35910;BME280;22004;49.120;-0.200;2023-02-19T04:07:05;102559.44;;;11.22;71.97
35910;BME280;22004;49.120;-0.200;2023-02-19T04:09:35;102572.31;;;11.19;72.38
35910;BME280;22004;49.120;-0.200;2023-02-19T04:12:03;102564.94;;;10.92;72.25
35910;BME280;22004;49.120;-0.200;2023-02-19T04:14:37;102579.38;;;11.00;72.67
35910;BME280;22004;49.120;-0.200;2023-02-19T04:17:14;102581.06;;;11.01;72.19
35910;BME280;22004;49.120;-0.200;2023-02-19T04:19:42;102586.59;;;11.00;70.58
35910;BME280;22004;49.120;-0.200;2023-02-19T04:22:07;102577.41;;;11.12;72.51
35910;BME280;22004;49.120;-0.200;2023-02-19T04:24:40;102593.06;;;10.97;71.75
35910;BME280;22004;49.120;-0.200;2023-02-19T04:27:08;102589.88;;;11.23;72.23
35910;BME280;22004;49.120;-0.200;2023-02-19T04:29:34;102591.84;;;11.11;72.29
35910;BME280;22004;49.120;-0.200;2023-02-19T04:31:59;102590.69;;;11.04;71.90
35910;BME280;22004;49.120;-0.200;2023-02-19T04:34:25;102590.25;;;10.99;72.33
35910;BME280;22004;49.120;-0.200;2023-02-19T04:36:50;102598.22;;;11.10;72.16
35910;BME280;22004;49.120;-0.200;2023-02-19T04:39:15;102601.63;;;11.22;72.33
35910;BME280;22004;49.120;-0.200;2023-02-19T04:41:41;102601.19;;;11.17;72.04
35910;BME280;22004;49.120;-0.200;2023-02-19T04:44:06;102607.56;;;11.16;72.63
35910;BME280;22004;49.120;-0.200;2023-02-19T04:46:31;102608.84;;;11.31;71.44
35910;BME280;22004;49.120;-0.200;2023-02-19T04:48:57;102612.09;;;11.15;72.28
35910;BME280;22004;49.120;-0.200;2023-02-19T04:51:22;102610.13;;;11.36;72.28
35910;BME280;22004;49.120;-0.200;2023-02-19T04:53:48;102605.56;;;11.18;72.17
35910;BME280;22004;49.120;-0.200;2023-02-19T04:56:15;102611.63;;;11.00;72.21
35910;BME280;22004;49.120;-0.200;2023-02-19T04:58:41;102614.44;;;11.08;72.49
35910;BME280;22004;49.120;-0.200;2023-02-19T05:01:07;102622.09;;;11.03;72.89
35910;BME280;22004;49.120;-0.200;2023-02-19T05:03:33;102632.19;;;11.21;72.37
35910;BME280;22004;49.120;-0.200;2023-02-19T05:06:05;102638.53;;;11.10;72.24
35910;BME280;22004;49.120;-0.200;2023-02-19T05:08:31;102637.25;;;11.04;72.89
35910;BME280;22004;49.120;-0.200;2023-02-19T05:10:58;102644.31;;;11.05;72.64
35910;BME280;22004;49.120;-0.200;2023-02-19T05:13:24;102642.75;;;11.12;72.72
35910;BME280;22004;49.120;-0.200;2023-02-19T05:16:13;102644.25;;;10.86;72.84
35910;BME280;22004;49.120;-0.200;2023-02-19T05:18:41;102660.44;;;11.05;73.23
35910;BME280;22004;49.120;-0.200;2023-02-19T05:21:07;102653.81;;;10.79;72.45
35910;BME280;22004;49.120;-0.200;2023-02-19T05:23:33;102657.59;;;11.07;72.30
35910;BME280;22004;49.120;-0.200;2023-02-19T05:25:58;102653.81;;;11.09;72.99
35910;BME280;22004;49.120;-0.200;2023-02-19T05:28:28;102654.38;;;11.13;72.63
35910;BME280;22004;49.120;-0.200;2023-02-19T05:30:54;102639.34;;;10.60;73.94
35910;BME280;22004;49.120;-0.200;2023-02-19T05:33:21;102637.91;;;10.97;73.25
35910;BME280;22004;49.120;-0.200;2023-02-19T05:35:51;102649.97;;;11.02;72.85
35910;BME280;22004;49.120;-0.200;2023-02-19T05:38:17;102653.34;;;10.95;73.24
35910;BME280;22004;49.120;-0.200;2023-02-19T05:40:44;102651.13;;;10.79;72.52
35910;BME280;22004;49.120;-0.200;2023-02-19T05:43:10;102667.06;;;10.61;70.92
35910;BME280;22004;49.120;-0.200;2023-02-19T05:45:36;102658.19;;;10.70;73.58
35910;BME280;22004;49.120;-0.200;2023-02-19T05:48:03;102657.72;;;10.96;72.16
35910;BME280;22004;49.120;-0.200;2023-02-19T05:50:29;102665.91;;;10.84;71.61
35910;BME280;22004;49.120;-0.200;2023-02-19T05:52:55;102664.63;;;10.58;72.19
35910;BME280;22004;49.120;-0.200;2023-02-19T05:55:20;102666.50;;;10.98;72.22
35910;BME280;22004;49.120;-0.200;2023-02-19T05:57:47;102665.59;;;10.87;72.87
35910;BME280;22004;49.120;-0.200;2023-02-19T06:00:15;102668.97;;;10.80;72.63
35910;BME280;22004;49.120;-0.200;2023-02-19T06:02:40;102663.06;;;10.86;72.38
35910;BME280;22004;49.120;-0.200;2023-02-19T06:05:06;102657.13;;;10.92;72.73
35910;BME280;22004;49.120;-0.200;2023-02-19T06:07:32;102660.78;;;10.81;72.76
35910;BME280;22004;49.120;-0.200;2023-02-19T06:09:57;102662.50;;;10.92;73.02
35910;BME280;22004;49.120;-0.200;2023-02-19T06:12:23;102668.47;;;10.96;72.49
35910;BME280;22004;49.120;-0.200;2023-02-19T06:14:48;102680.28;;;10.83;73.05
35910;BME280;22004;49.120;-0.200;2023-02-19T06:17:14;102685.19;;;10.99;72.88
35910;BME280;22004;49.120;-0.200;2023-02-19T06:19:39;102686.72;;;11.02;72.78
35910;BME280;22004;49.120;-0.200;2023-02-19T06:22:05;102678.19;;;10.87;72.80
35910;BME280;22004;49.120;-0.200;2023-02-19T06:24:30;102676.84;;;11.02;72.59
35910;BME280;22004;49.120;-0.200;2023-02-19T06:26:56;102670.44;;;10.94;72.18
35910;BME280;22004;49.120;-0.200;2023-02-19T06:29:21;102672.13;;;10.85;73.21
35910;BME280;22004;49.120;-0.200;2023-02-19T06:31:46;102686.88;;;11.00;73.10
35910;BME280;22004;49.120;-0.200;2023-02-19T06:34:12;102676.56;;;11.05;72.03
35910;BME280;22004;49.120;-0.200;2023-02-19T06:36:37;102680.53;;;10.71;72.44
35910;BME280;22004;49.120;-0.200;2023-02-19T06:39:03;102680.25;;;10.74;72.36
35910;BME280;22004;49.120;-0.200;2023-02-19T06:41:29;102681.72;;;10.87;72.96
35910;BME280;22004;49.120;-0.200;2023-02-19T06:43:56;102683.22;;;11.11;72.43
35910;BME280;22004;49.120;-0.200;2023-02-19T06:46:22;102688.28;;;10.95;72.73
35910;BME280;22004;49.120;-0.200;2023-02-19T06:48:47;102696.50;;;10.72;71.87
35910;BME280;22004;49.120;-0.200;2023-02-19T06:51:15;102705.75;;;10.79;72.87
35910;BME280;22004;49.120;-0.200;2023-02-19T06:53:42;102697.41;;;10.82;71.66
35910;BME280;22004;49.120;-0.200;2023-02-19T06:56:31;102700.94;;;10.83;72.42
35910;BME280;22004;49.120;-0.200;2023-02-19T06:58:59;102708.34;;;10.91;72.75
35910;BME280;22004;49.120;-0.200;2023-02-19T07:01:25;102721.31;;;10.85;72.09
35910;BME280;22004;49.120;-0.200;2023-02-19T07:03:51;102718.81;;;10.94;72.52
35910;BME280;22004;49.120;-0.200;2023-02-19T07:06:18;102715.22;;;10.83;73.35
35910;BME280;22004;49.120;-0.200;2023-02-19T07:08:44;102717.16;;;11.02;72.13
35910;BME280;22004;49.120;-0.200;2023-02-19T07:11:09;102724.59;;;10.89;72.83
35910;BME280;22004;49.120;-0.200;2023-02-19T07:13:35;102723.91;;;10.97;72.12
35910;BME280;22004;49.120;-0.200;2023-02-19T07:16:03;102728.84;;;10.92;72.31
35910;BME280;22004;49.120;-0.200;2023-02-19T07:18:29;102736.00;;;11.12;71.06
35910;BME280;22004;49.120;-0.200;2023-02-19T07:21:04;102741.00;;;10.86;72.17
35910;BME280;22004;49.120;-0.200;2023-02-19T07:23:30;102736.75;;;10.93;71.81
35910;BME280;22004;49.120;-0.200;2023-02-19T07:25:56;102733.06;;;10.84;73.10
35910;BME280;22004;49.120;-0.200;2023-02-19T07:28:21;102730.09;;;10.87;72.98
35910;BME280;22004;49.120;-0.200;2023-02-19T07:30:46;102730.94;;;10.88;72.80
35910;BME280;22004;49.120;-0.200;2023-02-19T07:33:12;102739.19;;;10.96;73.00
35910;BME280;22004;49.120;-0.200;2023-02-19T07:35:37;102740.53;;;10.81;72.16
35910;BME280;22004;49.120;-0.200;2023-02-19T07:38:08;102733.78;;;10.86;72.68
35910;BME280;22004;49.120;-0.200;2023-02-19T07:40:34;102732.91;;;10.55;73.52
35910;BME280;22004;49.120;-0.200;2023-02-19T07:43:00;102747.13;;;10.98;72.34
35910;BME280;22004;49.120;-0.200;2023-02-19T07:45:26;102751.09;;;11.03;72.80
35910;BME280;22004;49.120;-0.200;2023-02-19T07:47:51;102745.28;;;10.98;73.07
35910;BME280;22004;49.120;-0.200;2023-02-19T07:50:16;102738.94;;;10.99;72.18
35910;BME280;22004;49.120;-0.200;2023-02-19T07:52:42;102744.31;;;10.99;72.39
35910;BME280;22004;49.120;-0.200;2023-02-19T07:55:07;102756.38;;;10.84;72.50
35910;BME280;22004;49.120;-0.200;2023-02-19T07:57:32;102745.16;;;11.00;72.08
35910;BME280;22004;49.120;-0.200;2023-02-19T07:59:58;102739.78;;;10.69;72.56
35910;BME280;22004;49.120;-0.200;2023-02-19T08:02:24;102751.69;;;11.07;71.55
35910;BME280;22004;49.120;-0.200;2023-02-19T08:05:08;102757.66;;;11.10;71.82
35910;BME280;22004;49.120;-0.200;2023-02-19T08:07:35;102750.41;;;11.42;71.28
35910;BME280;22004;49.120;-0.200;2023-02-19T08:10:01;102744.81;;;11.24;71.57
35910;BME280;22004;49.120;-0.200;2023-02-19T08:12:54;102760.38;;;11.60;70.64
35910;BME280;22004;49.120;-0.200;2023-02-19T08:15:37;102765.72;;;11.51;71.13
35910;BME280;22004;49.120;-0.200;2023-02-19T08:18:03;102756.34;;;11.35;71.10
35910;BME280;22004;49.120;-0.200;2023-02-19T08:20:28;102753.81;;;11.53;70.66
35910;BME280;22004;49.120;-0.200;2023-02-19T08:22:53;102741.31;;;11.33;70.53
35910;BME280;22004;49.120;-0.200;2023-02-19T08:25:19;102752.81;;;11.45;70.63
35910;BME280;22004;49.120;-0.200;2023-02-19T08:27:44;102765.00;;;11.39;70.95
35910;BME280;22004;49.120;-0.200;2023-02-19T08:30:10;102759.78;;;11.57;70.60
35910;BME280;22004;49.120;-0.200;2023-02-19T08:32:35;102755.13;;;11.59;70.60
35910;BME280;22004;49.120;-0.200;2023-02-19T08:35:01;102756.94;;;11.58;70.27
35910;BME280;22004;49.120;-0.200;2023-02-19T08:37:26;102773.53;;;11.54;69.98
35910;BME280;22004;49.120;-0.200;2023-02-19T08:39:51;102774.22;;;11.56;70.52
35910;BME280;22004;49.120;-0.200;2023-02-19T08:42:17;102770.06;;;11.42;69.88
35910;BME280;22004;49.120;-0.200;2023-02-19T08:44:42;102772.06;;;11.40;69.27
35910;BME280;22004;49.120;-0.200;2023-02-19T08:47:07;102776.88;;;11.86;69.46
35910;BME280;22004;49.120;-0.200;2023-02-19T08:49:33;102784.38;;;11.93;68.31
35910;BME280;22004;49.120;-0.200;2023-02-19T08:51:58;102788.78;;;11.84;69.28
35910;BME280;22004;49.120;-0.200;2023-02-19T08:54:23;102790.28;;;11.77;69.19
35910;BME280;22004;49.120;-0.200;2023-02-19T08:56:49;102788.84;;;11.73;69.70
35910;BME280;22004;49.120;-0.200;2023-02-19T08:59:14;102778.91;;;11.63;69.51
35910;BME280;22004;49.120;-0.200;2023-02-19T09:01:39;102783.03;;;11.68;70.23
35910;BME280;22004;49.120;-0.200;2023-02-19T09:04:05;102782.81;;;11.40;69.71
35910;BME280;22004;49.120;-0.200;2023-02-19T09:06:30;102789.00;;;11.71;69.45
35910;BME280;22004;49.120;-0.200;2023-02-19T09:08:55;102784.25;;;11.84;69.14
35910;BME280;22004;49.120;-0.200;2023-02-19T09:11:21;102781.59;;;11.63;69.07
35910;BME280;22004;49.120;-0.200;2023-02-19T09:13:46;102783.88;;;11.68;69.00
35910;BME280;22004;49.120;-0.200;2023-02-19T09:16:11;102780.47;;;11.66;68.59
35910;BME280;22004;49.120;-0.200;2023-02-19T09:18:37;102779.50;;;11.77;68.95
35910;BME280;22004;49.120;-0.200;2023-02-19T09:21:03;102783.31;;;11.64;69.03
35910;BME280;22004;49.120;-0.200;2023-02-19T09:23:32;102781.63;;;11.73;67.51
35910;BME280;22004;49.120;-0.200;2023-02-19T09:25:59;102788.38;;;11.58;69.36
35910;BME280;22004;49.120;-0.200;2023-02-19T09:28:25;102783.09;;;11.87;68.38
35910;BME280;22004;49.120;-0.200;2023-02-19T09:30:51;102802.72;;;11.78;67.82
35910;BME280;22004;49.120;-0.200;2023-02-19T09:33:17;102803.94;;;11.95;67.54
35910;BME280;22004;49.120;-0.200;2023-02-19T09:35:42;102804.88;;;11.74;66.94
35910;BME280;22004;49.120;-0.200;2023-02-19T09:38:07;102801.28;;;12.04;66.83
35910;BME280;22004;49.120;-0.200;2023-02-19T09:40:38;102785.66;;;12.47;65.88
35910;BME280;22004;49.120;-0.200;2023-02-19T09:43:10;102796.03;;;12.32;66.08
35910;BME280;22004;49.120;-0.200;2023-02-19T09:45:39;102793.03;;;11.96;64.56
35910;BME280;22004;49.120;-0.200;2023-02-19T09:48:05;102791.38;;;12.24;66.70
35910;BME280;22004;49.120;-0.200;2023-02-19T09:50:35;102788.53;;;12.35;66.17
35910;BME280;22004;49.120;-0.200;2023-02-19T09:53:05;102798.00;;;12.01;65.22
35910;BME280;22004;49.120;-0.200;2023-02-19T09:55:38;102801.81;;;11.58;67.33
35910;BME280;22004;49.120;-0.200;2023-02-19T09:58:27;102794.16;;;11.84;67.36
35910;BME280;22004;49.120;-0.200;2023-02-19T10:00:56;102796.00;;;12.12;65.06
35910;BME280;22004;49.120;-0.200;2023-02-19T10:03:27;102796.88;;;12.52;65.10
35910;BME280;22004;49.120;-0.200;2023-02-19T10:06:01;102798.53;;;12.82;64.52
35910;BME280;22004;49.120;-0.200;2023-02-19T10:08:32;102804.09;;;12.51;65.92
35910;BME280;22004;49.120;-0.200;2023-02-19T10:11:01;102806.94;;;12.59;65.37
35910;BME280;22004;49.120;-0.200;2023-02-19T10:13:31;102811.50;;;12.39;66.40
35910;BME280;22004;49.120;-0.200;2023-02-19T10:16:01;102821.41;;;12.39;65.85
35910;BME280;22004;49.120;-0.200;2023-02-19T10:18:36;102822.25;;;12.10;66.39
35910;BME280;22004;49.120;-0.200;2023-02-19T10:21:02;102826.59;;;11.92;67.51
35910;BME280;22004;49.120;-0.200;2023-02-19T10:23:27;102832.84;;;12.02;67.10
35910;BME280;22004;49.120;-0.200;2023-02-19T10:25:58;102821.34;;;12.87;64.74
35910;BME280;22004;49.120;-0.200;2023-02-19T10:28:33;102825.53;;;13.29;64.13
35910;BME280;22004;49.120;-0.200;2023-02-19T10:31:01;102828.97;;;13.02;63.91
35910;BME280;22004;49.120;-0.200;2023-02-19T10:33:27;102831.19;;;12.50;65.30
35910;BME280;22004;49.120;-0.200;2023-02-19T10:36:03;102829.34;;;12.31;65.11
35910;BME280;22004;49.120;-0.200;2023-02-19T10:38:38;102831.34;;;12.29;65.97
35910;BME280;22004;49.120;-0.200;2023-02-19T10:41:13;102846.06;;;12.25;66.53
35910;BME280;22004;49.120;-0.200;2023-02-19T10:43:44;102843.97;;;12.28;66.58
35910;BME280;22004;49.120;-0.200;2023-02-19T10:46:17;102853.88;;;12.37;66.05
35910;BME280;22004;49.120;-0.200;2023-02-19T10:48:56;102860.38;;;12.25;65.69
35910;BME280;22004;49.120;-0.200;2023-02-19T10:51:35;102861.94;;;12.57;65.84
35910;BME280;22004;49.120;-0.200;2023-02-19T10:54:14;102858.97;;;12.21;66.71
35910;BME280;22004;49.120;-0.200;2023-02-19T10:56:40;102854.56;;;12.10;66.84
35910;BME280;22004;49.120;-0.200;2023-02-19T11:02:16;102857.13;;;12.80;64.95
35910;BME280;22004;49.120;-0.200;2023-02-19T11:05:02;102867.72;;;12.23;66.77
35910;BME280;22004;49.120;-0.200;2023-02-19T11:07:29;102857.97;;;12.32;66.06
35910;BME280;22004;49.120;-0.200;2023-02-19T11:09:55;102873.28;;;12.31;65.76
35910;BME280;22004;49.120;-0.200;2023-02-19T11:12:29;102871.47;;;12.51;65.77
35910;BME280;22004;49.120;-0.200;2023-02-19T11:14:56;102874.00;;;12.62;65.59
35910;BME280;22004;49.120;-0.200;2023-02-19T11:17:27;102860.09;;;12.48;66.09
35910;BME280;22004;49.120;-0.200;2023-02-19T11:19:56;102864.09;;;12.44;64.99
35910;BME280;22004;49.120;-0.200;2023-02-19T11:22:31;102868.75;;;12.61;65.47
35910;BME280;22004;49.120;-0.200;2023-02-19T11:25:06;102867.22;;;12.39;64.99
35910;BME280;22004;49.120;-0.200;2023-02-19T11:38:42;102860.53;;;12.72;64.89
35910;BME280;22004;49.120;-0.200;2023-02-19T11:47:23;102860.22;;;13.04;63.71
35910;BME280;22004;49.120;-0.200;2023-02-19T11:55:36;102866.88;;;13.57;62.27
35910;BME280;22004;49.120;-0.200;2023-02-19T11:58:41;102864.78;;;12.94;62.37
35910;BME280;22004;49.120;-0.200;2023-02-19T12:15:37;102864.78;;;12.46;65.00
35910;BME280;22004;49.120;-0.200;2023-02-19T12:18:24;102877.41;;;12.35;65.55
35910;BME280;22004;49.120;-0.200;2023-02-19T12:29:12;102852.75;;;13.35;62.75
35910;BME280;22004;49.120;-0.200;2023-02-19T12:32:02;102837.69;;;12.86;64.23
35910;BME280;22004;49.120;-0.200;2023-02-19T12:34:59;102853.03;;;12.66;64.41
35910;BME280;22004;49.120;-0.200;2023-02-19T12:40:20;102868.59;;;12.53;64.59
35910;BME280;22004;49.120;-0.200;2023-02-19T12:43:09;102859.22;;;13.05;63.38
35910;BME280;22004;49.120;-0.200;2023-02-19T12:45:44;102855.72;;;12.47;63.47
35910;BME280;22004;49.120;-0.200;2023-02-19T12:50:48;102877.97;;;12.78;64.50
35910;BME280;22004;49.120;-0.200;2023-02-19T12:53:34;102867.66;;;12.54;64.49
35910;BME280;22004;49.120;-0.200;2023-02-19T12:56:09;102867.63;;;12.34;66.03
35910;BME280;22004;49.120;-0.200;2023-02-19T12:58:44;102878.38;;;12.25;65.07
35910;BME280;22004;49.120;-0.200;2023-02-19T13:01:17;102879.66;;;12.21;66.35
35910;BME280;22004;49.120;-0.200;2023-02-19T13:04:38;102868.06;;;12.39;65.83
35910;BME280;22004;49.120;-0.200;2023-02-19T13:06:40;102861.69;;;12.40;65.50
35910;BME280;22004;49.120;-0.200;2023-02-19T13:09:13;102849.63;;;12.25;66.22
35910;BME280;22004;49.120;-0.200;2023-02-19T13:11:41;102852.03;;;12.48;65.83
35910;BME280;22004;49.120;-0.200;2023-02-19T13:14:35;102847.63;;;12.47;65.02
35910;BME280;22004;49.120;-0.200;2023-02-19T13:17:30;102852.31;;;12.54;65.96
35910;BME280;22004;49.120;-0.200;2023-02-19T13:20:37;102848.06;;;12.42;64.82
35910;BME280;22004;49.120;-0.200;2023-02-19T13:23:08;102840.13;;;12.60;63.56
35910;BME280;22004;49.120;-0.200;2023-02-19T13:36:42;102831.44;;;12.76;64.59
35910;BME280;22004;49.120;-0.200;2023-02-19T13:39:12;102833.16;;;12.38;64.51
35910;BME280;22004;49.120;-0.200;2023-02-19T13:41:42;102817.16;;;13.12;63.26
35910;BME280;22004;49.120;-0.200;2023-02-19T13:44:19;102820.13;;;12.53;65.06
35910;BME280;22004;49.120;-0.200;2023-02-19T13:46:46;102811.31;;;12.70;65.53
35910;BME280;22004;49.120;-0.200;2023-02-19T13:54:46;102816.03;;;12.58;65.92
35910;BME280;22004;49.120;-0.200;2023-02-19T13:59:46;102824.81;;;12.51;65.94
35910;BME280;22004;49.120;-0.200;2023-02-19T14:04:44;102808.50;;;12.52;64.97
35910;BME280;22004;49.120;-0.200;2023-02-19T14:33:08;102779.88;;;12.41;64.75
35910;BME280;22004;49.120;-0.200;2023-02-19T14:35:38;102779.59;;;12.25;66.15
35910;BME280;22004;49.120;-0.200;2023-02-19T14:38:05;102776.03;;;12.63;65.56
35910;BME280;22004;49.120;-0.200;2023-02-19T14:40:35;102782.97;;;12.47;65.28
35910;BME280;22004;49.120;-0.200;2023-02-19T14:43:04;102779.28;;;12.38;65.84
35910;BME280;22004;49.120;-0.200;2023-02-19T14:45:38;102773.44;;;12.62;65.76
35910;BME280;22004;49.120;-0.200;2023-02-19T14:48:05;102783.41;;;12.52;65.36
35910;BME280;22004;49.120;-0.200;2023-02-19T14:50:37;102777.16;;;12.32;65.61
35910;BME280;22004;49.120;-0.200;2023-02-19T14:53:03;102772.34;;;12.55;65.00
35910;BME280;22004;49.120;-0.200;2023-02-19T14:55:34;102782.28;;;12.25;66.19
35910;BME280;22004;49.120;-0.200;2023-02-19T14:58:05;102782.13;;;12.46;66.16
35910;BME280;22004;49.120;-0.200;2023-02-19T15:00:37;102776.75;;;12.46;66.03
35910;BME280;22004;49.120;-0.200;2023-02-19T15:03:03;102773.47;;;12.42;65.81
35910;BME280;22004;49.120;-0.200;2023-02-19T15:05:34;102780.72;;;12.42;65.27